Terminal Aerodrome Forecast
Issued by NWS Charleston, WV

Current Version | Previous Version | Graphics & Text | Print | Product List | Glossary Off
Versions: 1 2 3 4 5 6 7 8 9 10 11 12 13 14 15 16 17 18 19 20 21 22

591
FTUS41 KRLX 160841 AAC
TAFCRW
TAF AMD
KCRW 160841Z 1609/1706 23006KT P6SM BKN050
     FM161100 22006KT P6SM SCT050 BKN100
     FM161400 21007KT P6SM SCT110
     FM170200 20003KT P6SM SKC=

USA.gov is the U.S. government's official web portal to all federal, state and local government web resources and services.